createdAt,value
2022-08-26T00:01:51.906Z,24.25
2022-08-26T00:04:19.721Z,26.88
2022-08-26T00:06:46.964Z,22.85
2022-08-26T00:09:16.188Z,19.92
2022-08-26T00:11:44.643Z,24.95
2022-08-26T00:14:14.041Z,24.42
2022-08-26T00:16:47.929Z,26.77
2022-08-26T00:19:16.131Z,27.23
2022-08-26T00:21:43.555Z,23.77
2022-08-26T00:24:10.743Z,29.08
2022-08-26T00:26:38.894Z,26.20
2022-08-26T00:29:08.607Z,21.33
2022-08-26T00:31:36.767Z,26.52
2022-08-26T00:34:04.570Z,28.60
2022-08-26T00:36:32.321Z,25.10
2022-08-26T00:38:59.478Z,26.35
2022-08-26T00:41:26.772Z,22.83
2022-08-26T00:43:54.631Z,23.17
2022-08-26T00:46:24.175Z,27.40
2022-08-26T00:48:53.506Z,25.83
2022-08-26T00:51:22.430Z,23.65
2022-08-26T00:53:52.712Z,29.50
2022-08-26T00:56:29.883Z,26.77
2022-08-26T00:58:58.115Z,24.40
2022-08-26T01:01:28.149Z,19.70
2022-08-26T01:03:57.997Z,25.38
2022-08-26T01:06:25.883Z,25.65
2022-08-26T01:08:53.249Z,29.08
2022-08-26T01:11:21.187Z,27.85
2022-08-26T01:13:49.399Z,21.90
2022-08-26T01:16:17.121Z,26.63
2022-08-26T01:18:44.985Z,28.13
2022-08-26T01:21:19.036Z,24.95
2022-08-26T01:23:48.339Z,26.05
2022-08-26T01:26:33.788Z,37.72
2022-08-26T01:29:02.993Z,30.67
2022-08-26T01:31:34.161Z,28.48
2022-08-26T01:34:04.897Z,27.55
2022-08-26T01:36:32.045Z,29.35
2022-08-26T01:38:59.285Z,19.77
2022-08-26T01:41:29.161Z,28.05
2022-08-26T01:43:58.030Z,22.83
2022-08-26T01:46:26.789Z,38.47
2022-08-26T01:48:55.249Z,26.60
2022-08-26T01:51:24.332Z,23.00
2022-08-26T01:53:51.547Z,27.80
2022-08-26T01:56:19.746Z,30.15
2022-08-26T01:58:51.820Z,27.90
2022-08-26T02:01:19.394Z,31.20
2022-08-26T02:03:52.060Z,31.50
2022-08-26T02:06:19.762Z,23.05
2022-08-26T02:08:51.388Z,30.90
2022-08-26T02:11:18.581Z,27.60
2022-08-26T02:13:47.226Z,27.13
2022-08-26T02:16:16.992Z,34.53
2022-08-26T02:18:45.148Z,26.00
2022-08-26T02:21:14.348Z,27.83
2022-08-26T02:23:42.565Z,24.60
2022-08-26T02:26:11.262Z,24.23
2022-08-26T02:28:41.574Z,34.17
2022-08-26T02:31:08.729Z,26.45
2022-08-26T02:33:37.211Z,27.50
2022-08-26T02:36:10.485Z,26.67
2022-08-26T02:38:39.333Z,28.50
2022-08-26T02:41:08.064Z,25.95
2022-08-26T02:43:35.208Z,27.85
2022-08-26T02:46:02.627Z,29.40
2022-08-26T02:48:30.668Z,29.00
2022-08-26T02:50:59.761Z,23.85
2022-08-26T02:53:26.952Z,26.58
2022-08-26T02:55:54.945Z,28.40
2022-08-26T02:58:22.522Z,30.08
2022-08-26T03:00:53.124Z,30.35
2022-08-26T03:03:20.755Z,26.35
2022-08-26T03:05:50.739Z,24.85
2022-08-26T03:08:17.973Z,27.20
2022-08-26T03:10:46.486Z,34.88
2022-08-26T03:13:15.314Z,20.38
2022-08-26T03:15:42.430Z,28.40
2022-08-26T03:18:10.979Z,26.80
2022-08-26T03:20:38.696Z,27.58
2022-08-26T03:23:05.977Z,36.22
2022-08-26T03:25:34.182Z,33.83
2022-08-26T03:28:02.213Z,29.73
2022-08-26T03:30:44.655Z,30.23
2022-08-26T03:33:13.681Z,30.38
2022-08-26T03:35:42.805Z,26.70
2022-08-26T03:38:10.081Z,29.67
2022-08-26T03:40:37.928Z,29.08
2022-08-26T03:43:06.467Z,24.30
2022-08-26T03:45:37.126Z,24.35
2022-08-26T03:48:04.551Z,29.75
2022-08-26T03:50:34.111Z,25.88
2022-08-26T03:53:01.633Z,23.80
2022-08-26T03:55:31.992Z,28.52
2022-08-26T03:57:59.911Z,33.85
2022-08-26T04:00:27.201Z,29.92
2022-08-26T04:02:54.530Z,28.30
2022-08-26T04:05:23.195Z,28.15
2022-08-26T04:07:50.717Z,30.33
2022-08-26T04:10:20.252Z,25.38
2022-08-26T04:12:47.645Z,28.70
2022-08-26T04:15:15.806Z,27.67
2022-08-26T04:17:43.158Z,28.20
2022-08-26T04:20:13.856Z,25.23
2022-08-26T04:22:43.480Z,24.33
2022-08-26T04:25:11.190Z,24.52
2022-08-26T04:27:38.486Z,19.50
2022-08-26T04:30:08.920Z,30.38
2022-08-26T04:32:36.975Z,32.40
2022-08-26T04:35:04.789Z,30.08
2022-08-26T04:37:33.554Z,29.40
2022-08-26T04:40:00.815Z,24.90
2022-08-26T04:42:29.321Z,25.15
2022-08-26T04:44:56.459Z,29.60
2022-08-26T04:47:25.551Z,27.92
2022-08-26T04:49:58.323Z,27.63
2022-08-26T04:52:25.507Z,28.30
2022-08-26T04:54:55.417Z,32.53
2022-08-26T04:57:23.327Z,28.90
2022-08-26T04:59:50.852Z,40.15
2022-08-26T05:02:18.154Z,39.45
2022-08-26T05:04:45.438Z,27.58
2022-08-26T05:07:12.905Z,33.10
2022-08-26T05:09:40.866Z,26.88
2022-08-26T05:12:09.148Z,22.08
2022-08-26T05:14:36.791Z,25.73
2022-08-26T05:17:04.073Z,23.33
2022-08-26T05:19:31.940Z,20.55
2022-08-26T05:21:59.921Z,20.45
2022-08-26T05:24:27.044Z,21.08
2022-08-26T05:26:54.540Z,20.05
2022-08-26T05:29:23.736Z,22.13
2022-08-26T05:31:51.905Z,21.20
2022-08-26T05:34:20.056Z,23.85
2022-08-26T05:36:47.646Z,20.75
2022-08-26T05:39:14.900Z,20.33
2022-08-26T05:41:43.175Z,21.90
2022-08-26T05:44:13.940Z,26.23
2022-08-26T05:46:41.933Z,23.70
2022-08-26T05:49:12.719Z,21.23
2022-08-26T05:51:40.701Z,25.35
2022-08-26T05:54:07.874Z,20.73
2022-08-26T05:56:37.730Z,17.35
2022-08-26T05:59:05.316Z,19.55
2022-08-26T06:01:35.682Z,26.40
2022-08-26T06:04:03.212Z,18.98
2022-08-26T06:06:32.162Z,22.83
2022-08-26T06:08:59.740Z,27.60
2022-08-26T06:11:27.730Z,29.20
2022-08-26T06:13:57.968Z,31.33
2022-08-26T06:16:27.362Z,33.58
2022-08-26T06:18:55.086Z,34.58
2022-08-26T06:21:25.268Z,28.85
2022-08-26T06:24:12.033Z,30.40
2022-08-26T06:26:39.701Z,30.40
2022-08-26T06:29:10.481Z,43.33
2022-08-26T06:31:38.064Z,34.25
2022-08-26T06:34:10.687Z,26.48
2022-08-26T06:36:39.477Z,39.08
2022-08-26T06:39:09.420Z,28.15
2022-08-26T06:41:42.710Z,30.25
2022-08-26T06:44:10.488Z,35.88
2022-08-26T06:46:37.681Z,39.65
2022-08-26T06:49:05.621Z,30.88
2022-08-26T06:51:34.809Z,25.65
2022-08-26T06:54:02.246Z,22.73
2022-08-26T06:56:33.441Z,31.23
2022-08-26T06:59:00.686Z,25.30
2022-08-26T07:01:29.354Z,35.83
2022-08-26T07:03:58.449Z,30.33
2022-08-26T07:06:26.650Z,22.13
2022-08-26T07:08:54.797Z,28.08
2022-08-26T07:11:21.945Z,25.65
2022-08-26T07:13:51.415Z,28.15
2022-08-26T07:16:19.192Z,26.35
2022-08-26T07:18:46.870Z,33.55
2022-08-26T07:21:15.255Z,24.30
2022-08-26T07:23:42.441Z,23.58
2022-08-26T07:26:12.662Z,19.65
2022-08-26T07:28:39.870Z,29.67
2022-08-26T07:31:09.647Z,20.30
2022-08-26T07:33:37.344Z,31.35
2022-08-26T07:36:07.181Z,27.80
2022-08-26T07:38:37.399Z,31.73
2022-08-26T07:41:04.551Z,29.65
2022-08-26T07:43:31.896Z,27.02
2022-08-26T07:45:59.004Z,28.58
2022-08-26T07:48:26.146Z,31.10
2022-08-26T07:50:53.781Z,36.42
2022-08-26T07:53:21.658Z,33.35
2022-08-26T07:55:51.856Z,35.97
2022-08-26T07:58:19.781Z,23.00
2022-08-26T08:00:47.524Z,26.73
2022-08-26T08:03:15.425Z,26.10
2022-08-26T08:05:42.826Z,27.60
2022-08-26T08:08:26.761Z,29.95
2022-08-26T08:10:55.602Z,23.75
2022-08-26T08:13:22.728Z,29.15
2022-08-26T08:15:50.708Z,30.63
2022-08-26T08:18:18.072Z,25.42
2022-08-26T08:20:54.670Z,21.25
2022-08-26T08:23:32.935Z,23.55
2022-08-26T08:26:04.823Z,28.13
2022-08-26T08:28:32.065Z,22.80
2022-08-26T08:30:59.260Z,23.77
2022-08-26T08:33:29.210Z,22.35
2022-08-26T08:35:57.133Z,23.85
2022-08-26T08:38:24.787Z,21.20
2022-08-26T08:40:51.971Z,27.92
2022-08-26T08:43:22.088Z,23.58
2022-08-26T08:46:02.086Z,26.20
2022-08-26T08:48:32.911Z,20.20
2022-08-26T08:51:00.250Z,22.02
2022-08-26T08:53:35.019Z,25.08
2022-08-26T08:56:07.922Z,23.00
2022-08-26T08:59:04.572Z,20.08
2022-08-26T09:01:52.303Z,31.33
2022-08-26T09:04:36.488Z,29.80
2022-08-26T09:07:04.236Z,20.73
2022-08-26T09:09:41.794Z,22.95
2022-08-26T09:12:12.738Z,22.77
2022-08-26T09:14:39.970Z,19.10
2022-08-26T09:17:07.172Z,24.35
2022-08-26T09:19:42.212Z,20.67
2022-08-26T09:22:09.937Z,19.55
2022-08-26T09:24:49.136Z,19.88
2022-08-26T09:27:35.338Z,25.27
2022-08-26T09:30:07.705Z,16.70
2022-08-26T09:32:38.708Z,21.90
2022-08-26T09:35:08.120Z,21.70
2022-08-26T09:37:35.722Z,24.90
2022-08-26T09:40:22.661Z,21.63
2022-08-26T09:43:06.767Z,20.25
2022-08-26T09:45:34.441Z,23.55
2022-08-26T09:48:02.336Z,23.88
2022-08-26T09:50:32.763Z,20.35
2022-08-26T09:53:09.867Z,20.15
2022-08-26T09:55:42.009Z,21.08
2022-08-26T09:58:13.415Z,20.88
2022-08-26T10:00:42.059Z,18.17
2022-08-26T10:03:23.083Z,26.90
2022-08-26T10:06:03.977Z,26.02
2022-08-26T10:08:36.900Z,18.02
2022-08-26T10:11:06.343Z,15.95
2022-08-26T10:13:36.460Z,23.58
2022-08-26T10:16:11.977Z,15.63
2022-08-26T10:19:00.279Z,20.80
2022-08-26T10:21:30.050Z,19.20
2022-08-26T10:23:59.635Z,23.15
2022-08-26T10:26:31.391Z,17.45
2022-08-26T10:29:07.263Z,18.58
2022-08-26T10:31:40.357Z,20.02
2022-08-26T10:34:08.996Z,18.65
2022-08-26T10:37:13.744Z,29.38
2022-08-26T10:39:59.364Z,25.42
2022-08-26T10:42:37.770Z,25.15
2022-08-26T10:45:11.862Z,21.65
2022-08-26T10:47:55.037Z,20.70
2022-08-26T10:50:25.633Z,20.27
2022-08-26T10:53:13.575Z,27.70
2022-08-26T10:55:45.779Z,22.42
2022-08-26T10:58:31.655Z,28.40
2022-08-26T11:01:40.618Z,18.83
2022-08-26T11:04:08.659Z,25.63
2022-08-26T11:06:37.129Z,26.83
2022-08-26T11:09:06.193Z,22.02
2022-08-26T11:11:45.389Z,24.02
2022-08-26T11:14:29.012Z,26.52
2022-08-26T11:16:58.730Z,38.07
2022-08-26T11:19:45.585Z,27.95
2022-08-26T11:22:27.602Z,19.23
2022-08-26T11:24:57.811Z,18.55
2022-08-26T11:27:25.861Z,21.67
2022-08-26T11:29:57.744Z,21.83
2022-08-26T11:32:28.312Z,18.93
2022-08-26T11:35:00.482Z,20.88
2022-08-26T11:37:32.365Z,32.20
2022-08-26T11:40:01.601Z,25.85
2022-08-26T11:42:34.276Z,20.52
2022-08-26T11:45:05.538Z,22.13
2022-08-26T11:47:32.967Z,24.75
2022-08-26T11:50:07.724Z,25.45
2022-08-26T11:52:34.844Z,18.85
2022-08-26T11:55:03.773Z,20.52
2022-08-26T11:57:33.417Z,26.23
2022-08-26T12:00:01.454Z,20.88
2022-08-26T12:02:29.189Z,19.52
2022-08-26T12:04:56.934Z,16.77
2022-08-26T12:07:26.989Z,17.38
2022-08-26T12:09:57.818Z,15.35
2022-08-26T12:12:34.743Z,18.90
2022-08-26T12:15:23.657Z,24.48
2022-08-26T12:17:54.505Z,26.83
2022-08-26T12:20:48.487Z,37.67
2022-08-26T12:23:37.538Z,23.00
2022-08-26T12:26:09.895Z,16.27
2022-08-26T12:28:48.734Z,14.82
2022-08-26T12:31:23.972Z,17.05
2022-08-26T12:33:52.551Z,17.27
2022-08-26T12:36:27.443Z,18.42
2022-08-26T12:38:58.296Z,19.10
2022-08-26T12:41:39.787Z,21.30
2022-08-26T12:44:06.973Z,24.50
2022-08-26T12:46:36.300Z,18.85
2022-08-26T12:49:04.148Z,22.13
2022-08-26T12:51:34.783Z,25.63
2022-08-26T12:54:06.765Z,25.25
2022-08-26T12:56:39.029Z,18.83
2022-08-26T12:59:20.278Z,19.52
2022-08-26T13:01:49.427Z,19.50
2022-08-26T13:04:33.860Z,20.23
2022-08-26T13:07:20.129Z,25.48
2022-08-26T13:09:47.665Z,27.88
2022-08-26T13:12:24.509Z,19.73
2022-08-26T13:14:51.723Z,17.65
2022-08-26T13:17:19.109Z,18.80
2022-08-26T13:19:46.219Z,22.90
2022-08-26T13:22:14.280Z,21.38
2022-08-26T13:24:42.921Z,22.95
2022-08-26T13:27:11.210Z,15.35
2022-08-26T13:29:38.448Z,25.30
2022-08-26T13:32:06.770Z,25.25
2022-08-26T13:34:34.156Z,20.30
2022-08-26T13:37:01.343Z,28.15
2022-08-26T13:39:28.660Z,20.25
2022-08-26T13:41:55.736Z,19.13
2022-08-26T13:44:22.868Z,20.73
2022-08-26T13:46:49.974Z,18.58
2022-08-26T13:49:17.148Z,19.95
2022-08-26T13:51:44.330Z,22.27
2022-08-26T13:54:11.582Z,21.42
2022-08-26T13:56:39.141Z,17.67
2022-08-26T13:59:06.561Z,24.67
2022-08-26T14:01:34.390Z,16.35
2022-08-26T14:04:02.980Z,17.65
2022-08-26T14:06:30.351Z,17.58
2022-08-26T14:08:57.448Z,19.30
2022-08-26T14:11:25.020Z,24.30
2022-08-26T14:13:52.456Z,15.50
2022-08-26T14:16:28.021Z,21.83
2022-08-26T14:18:55.715Z,21.33
2022-08-26T14:21:22.861Z,20.98
2022-08-26T14:23:50.008Z,14.68
2022-08-26T14:26:27.830Z,17.05
2022-08-26T14:28:56.569Z,21.25
2022-08-26T14:31:24.536Z,15.13
2022-08-26T14:33:51.855Z,15.40
2022-08-26T14:36:28.173Z,18.73
2022-08-26T14:38:56.657Z,16.88
2022-08-26T14:41:27.180Z,16.95
2022-08-26T14:44:14.236Z,20.85
2022-08-26T14:46:49.636Z,14.80
2022-08-26T14:49:19.356Z,14.13
2022-08-26T14:51:46.909Z,14.27
2022-08-26T14:54:16.929Z,16.98
2022-08-26T14:56:48.866Z,16.42
2022-08-26T14:59:18.069Z,15.43
2022-08-26T15:01:45.735Z,14.65
2022-08-26T15:04:13.494Z,18.13
2022-08-26T15:06:41.200Z,51.15
2022-08-26T15:09:08.585Z,73.25
2022-08-26T15:11:35.776Z,28.15
2022-08-26T15:14:03.102Z,16.45
2022-08-26T15:16:31.175Z,13.75
2022-08-26T15:19:00.662Z,10.30
2022-08-26T15:21:28.614Z,9.52
2022-08-26T15:23:55.755Z,9.05
2022-08-26T15:26:23.638Z,11.00
2022-08-26T15:28:51.476Z,6.53
2022-08-26T15:31:18.834Z,6.70
2022-08-26T15:33:49.113Z,6.70
2022-08-26T15:36:16.255Z,11.77
2022-08-26T15:38:43.530Z,9.13
2022-08-26T15:41:10.821Z,6.07
2022-08-26T15:43:38.479Z,8.93
2022-08-26T15:46:05.754Z,8.10
2022-08-26T15:48:32.919Z,12.80
2022-08-26T15:51:01.942Z,8.13
2022-08-26T15:53:31.306Z,15.27
2022-08-26T15:55:59.056Z,10.18
2022-08-26T15:58:27.352Z,9.00
2022-08-26T16:00:55.387Z,11.27
2022-08-26T16:03:22.851Z,4.90
2022-08-26T16:05:50.191Z,8.63
2022-08-26T16:08:18.972Z,7.55
2022-08-26T16:10:50.431Z,12.07
2022-08-26T16:13:19.190Z,9.55
2022-08-26T16:15:47.507Z,5.47
2022-08-26T16:18:15.689Z,9.55
2022-08-26T16:21:12.548Z,9.65
2022-08-26T16:23:40.309Z,7.57
2022-08-26T16:26:11.253Z,9.63
2022-08-26T16:28:39.025Z,9.07
2022-08-26T16:31:06.577Z,7.40
2022-08-26T16:33:33.731Z,7.90
2022-08-26T16:36:00.910Z,12.70
2022-08-26T16:38:28.093Z,18.83
2022-08-26T16:40:55.186Z,11.20
2022-08-26T16:43:22.449Z,8.65
2022-08-26T16:45:49.567Z,10.98
2022-08-26T16:48:16.714Z,11.05
2022-08-26T16:50:43.954Z,13.57
2022-08-26T16:55:38.233Z,11.45
2022-08-26T16:58:05.383Z,12.85
2022-08-26T17:00:34.593Z,16.63
2022-08-26T17:03:02.030Z,13.10
2022-08-26T17:05:29.329Z,14.23
2022-08-26T17:07:57.772Z,14.10
2022-08-26T17:10:26.280Z,15.15
2022-08-26T17:12:53.592Z,17.67
2022-08-26T17:15:23.689Z,12.07
2022-08-26T17:17:54.655Z,14.05
2022-08-26T17:20:22.713Z,12.57
2022-08-26T17:22:51.669Z,16.10
2022-08-26T17:25:24.306Z,15.35
2022-08-26T17:27:51.541Z,12.13
2022-08-26T17:30:19.129Z,16.65
2022-08-26T17:32:46.563Z,15.50
2022-08-26T17:35:15.495Z,11.27
2022-08-26T17:37:44.731Z,16.13
2022-08-26T17:40:13.853Z,13.65
2022-08-26T17:42:41.098Z,21.20
2022-08-26T17:45:09.097Z,56.17
2022-08-26T17:47:36.684Z,12.23
2022-08-26T17:50:05.284Z,11.00
2022-08-26T17:52:32.401Z,14.98
2022-08-26T17:54:59.595Z,15.05
2022-08-26T17:57:27.123Z,11.10
2022-08-26T17:59:54.729Z,17.17
2022-08-26T18:02:22.378Z,17.20
2022-08-26T18:04:49.609Z,13.98
2022-08-26T18:07:17.139Z,13.32
2022-08-26T18:09:44.635Z,17.80
2022-08-26T18:12:12.161Z,21.45
2022-08-26T18:14:39.307Z,17.08
2022-08-26T18:17:06.578Z,19.15
2022-08-26T18:19:33.867Z,16.17
2022-08-26T18:22:00.982Z,17.92
2022-08-26T18:24:30.441Z,13.73
2022-08-26T18:26:57.669Z,17.15
2022-08-26T18:29:25.535Z,14.10
2022-08-26T18:31:52.659Z,16.58
2022-08-26T18:34:19.976Z,14.88
2022-08-26T18:36:47.732Z,18.23
2022-08-26T18:39:15.525Z,15.30
2022-08-26T18:41:48.410Z,19.42
2022-08-26T18:44:16.543Z,17.13
2022-08-26T18:46:46.199Z,13.65
2022-08-26T18:49:14.423Z,17.48
2022-08-26T18:51:42.206Z,19.13
2022-08-26T18:54:09.835Z,17.17
2022-08-26T18:56:37.528Z,13.80
2022-08-26T18:59:05.910Z,15.07
2022-08-26T19:01:33.723Z,13.95
2022-08-26T19:04:01.840Z,17.75
2022-08-26T19:06:31.606Z,19.95
2022-08-26T19:08:58.935Z,20.27
2022-08-26T19:11:31.603Z,16.33
2022-08-26T19:14:00.719Z,17.83
2022-08-26T19:16:28.460Z,17.48
2022-08-26T19:18:56.390Z,15.13
2022-08-26T19:21:23.725Z,16.33
2022-08-26T19:23:51.333Z,16.52
2022-08-26T19:26:18.495Z,14.50
2022-08-26T19:28:45.690Z,14.18
2022-08-26T19:31:12.983Z,23.13
2022-08-26T19:33:41.941Z,15.35
2022-08-26T19:36:14.570Z,15.25
2022-08-26T19:38:42.915Z,16.55
2022-08-26T19:41:17.502Z,21.30
2022-08-26T19:43:46.363Z,18.23
2022-08-26T19:46:15.911Z,18.52
2022-08-26T19:48:46.641Z,15.75
2022-08-26T19:51:18.529Z,15.65
2022-08-26T19:53:46.381Z,15.70
2022-08-26T19:56:14.310Z,20.98
2022-08-26T19:58:42.248Z,20.63
2022-08-26T20:01:09.621Z,17.02
2022-08-26T20:03:37.595Z,16.27
2022-08-26T20:06:05.680Z,18.73
2022-08-26T20:08:33.492Z,17.98
2022-08-26T20:11:01.938Z,18.30
2022-08-26T20:13:29.178Z,20.58
2022-08-26T20:15:56.384Z,17.60
2022-08-26T20:18:42.026Z,16.30
2022-08-26T20:21:27.305Z,20.42
2022-08-26T20:24:02.219Z,19.77
2022-08-26T20:26:30.378Z,17.58
2022-08-26T20:28:57.881Z,17.70
2022-08-26T20:31:25.648Z,19.60
2022-08-26T20:33:53.551Z,23.23
2022-08-26T20:36:21.942Z,21.02
2022-08-26T20:38:49.703Z,25.45
2022-08-26T20:41:17.072Z,25.90
2022-08-26T20:43:44.469Z,20.48
2022-08-26T20:46:18.790Z,25.13
2022-08-26T20:48:47.265Z,19.60
2022-08-26T20:51:14.945Z,21.02
2022-08-26T20:53:42.163Z,26.65
2022-08-26T20:56:10.180Z,20.98
2022-08-26T20:58:38.142Z,21.63
2022-08-26T21:01:07.949Z,27.58
2022-08-26T21:03:35.891Z,21.30
2022-08-26T21:06:03.713Z,22.33
2022-08-26T21:08:33.176Z,24.90
2022-08-26T21:11:00.864Z,23.95
2022-08-26T21:13:39.194Z,29.02
2022-08-26T21:16:16.441Z,22.25
2022-08-26T21:18:43.852Z,20.42
2022-08-26T21:21:11.021Z,18.55
2022-08-26T21:23:38.273Z,20.17
2022-08-26T21:26:06.708Z,20.48
2022-08-26T21:28:35.538Z,19.17
2022-08-26T21:31:04.358Z,24.67
2022-08-26T21:33:31.798Z,25.13
2022-08-26T21:35:58.954Z,25.95
2022-08-26T21:38:26.532Z,20.65
2022-08-26T21:41:02.305Z,27.67
2022-08-26T21:43:34.892Z,26.98
2022-08-26T21:46:11.373Z,23.45
2022-08-26T21:48:45.678Z,23.80
2022-08-26T21:51:15.436Z,22.73
2022-08-26T21:53:42.957Z,22.05
2022-08-26T21:56:12.113Z,22.83
2022-08-26T21:58:39.530Z,25.42
2022-08-26T22:01:14.131Z,23.52
2022-08-26T22:03:46.742Z,21.88
2022-08-26T22:06:15.069Z,29.20
2022-08-26T22:08:42.278Z,24.60
2022-08-26T22:11:10.444Z,24.67
2022-08-26T22:13:38.923Z,29.42
2022-08-26T22:16:07.081Z,23.98
2022-08-26T22:18:34.589Z,24.88
2022-08-26T22:21:03.377Z,27.60
2022-08-26T22:23:30.839Z,27.30
2022-08-26T22:25:58.977Z,26.75
2022-08-26T22:28:26.338Z,21.50
2022-08-26T22:30:53.559Z,24.80
2022-08-26T22:33:20.862Z,23.52
2022-08-26T22:35:49.765Z,26.17
2022-08-26T22:38:17.635Z,22.80
2022-08-26T22:40:50.376Z,26.30
2022-08-26T22:43:18.521Z,25.43
2022-08-26T22:45:46.871Z,25.42
2022-08-26T22:48:15.718Z,22.83
2022-08-26T22:50:43.375Z,29.35
2022-08-26T22:53:10.618Z,24.70
2022-08-26T22:55:37.966Z,25.45
2022-08-26T22:58:05.955Z,22.98
2022-08-26T23:00:34.272Z,20.80
2022-08-26T23:03:02.229Z,22.25
2022-08-26T23:05:29.726Z,20.17
2022-08-26T23:07:57.224Z,23.50
2022-08-26T23:10:24.851Z,21.67
2022-08-26T23:12:52.672Z,24.70
2022-08-26T23:15:20.835Z,22.58
2022-08-26T23:17:48.620Z,20.23
2022-08-26T23:20:26.307Z,28.40
2022-08-26T23:22:53.605Z,20.02
2022-08-26T23:25:21.456Z,25.35
2022-08-26T23:27:49.058Z,21.20
2022-08-26T23:30:17.980Z,29.05
2022-08-26T23:32:45.252Z,25.38
2022-08-26T23:35:14.215Z,23.33
2022-08-26T23:37:43.670Z,20.77
2022-08-26T23:40:34.220Z,23.08
2022-08-26T23:43:05.347Z,20.95
2022-08-26T23:45:32.856Z,26.77
2022-08-26T23:48:00.245Z,24.15
2022-08-26T23:50:47.500Z,24.58
2022-08-26T23:53:19.433Z,22.50
2022-08-26T23:55:50.804Z,25.13
2022-08-26T23:58:18.681Z,21.73
